Time;durP1;ratioP1;P1;durP2;ratioP2;P2;SDS_P1;SDS_P2;PMS_P1;PMS_P2;Temp;Humidity;BMP_temperature;BMP_pressure;BME280_temperature;BME280_humidity;BME280_pressure;Samples;Min_cycle;Max_cycle;Signal;HPM_P1;HPM_P2
2023/01/02 00:01:16;;;;;;;14.20;6.30;;;11.60;99.90;;;;;;5091203;28;20026;-60
2023/01/02 00:03:41;;;;;;;15.18;6.28;;;11.70;99.90;;;;;;5093886;28;20472;-60
2023/01/02 00:06:08;;;;;;;10.13;5.13;;;11.70;99.90;;;;;;5095667;28;20387;-60
2023/01/02 00:08:33;;;;;;;11.70;5.70;;;11.70;99.90;;;;;;5090765;28;20047;-60
2023/01/02 00:10:59;;;;;;;13.85;6.55;;;11.80;99.90;;;;;;5096274;28;20027;-60
2023/01/02 00:13:24;;;;;;;13.25;5.78;;;11.80;99.90;;;;;;5093253;28;20043;-60
2023/01/02 00:15:50;;;;;;;10.43;5.63;;;11.80;99.90;;;;;;5090813;28;20024;-61
2023/01/02 00:18:15;;;;;;;10.75;5.43;;;11.90;99.90;;;;;;5094832;28;20043;-60
2023/01/02 00:20:41;;;;;;;10.50;5.45;;;11.90;99.90;;;;;;5097872;28;20023;-60
2023/01/02 00:23:07;;;;;;;9.65;4.57;;;12.00;99.90;;;;;;5090857;28;20081;-60
2023/01/02 00:25:33;;;;;;;12.35;4.85;;;12.00;99.90;;;;;;5072404;28;20389;-60
2023/01/02 00:28:00;;;;;;;8.88;4.75;;;12.10;99.90;;;;;;5072214;28;20373;-60
2023/01/02 00:30:26;;;;;;;11.85;4.65;;;12.10;99.90;;;;;;5072648;28;20021;-60
2023/01/02 00:32:51;;;;;;;12.13;5.32;;;12.20;99.90;;;;;;5090075;28;20527;-60
2023/01/02 00:35:17;;;;;;;11.88;5.65;;;12.10;99.90;;;;;;5090404;28;20032;-60
2023/01/02 00:37:43;;;;;;;12.38;4.75;;;12.20;99.90;;;;;;5090373;28;20024;-60
2023/01/02 00:40:12;;;;;;;14.98;4.50;;;12.20;99.90;;;;;;5089582;28;20055;-61
2023/01/02 00:42:39;;;;;;;8.00;4.57;;;12.20;99.90;;;;;;5092639;28;20022;-60
2023/01/02 00:45:05;;;;;;;9.60;4.55;;;12.20;99.90;;;;;;5090515;28;20469;-60
2023/01/02 00:47:31;;;;;;;12.32;4.65;;;12.20;99.90;;;;;;5094109;28;20507;-60
2023/01/02 00:49:56;;;;;;;14.98;4.97;;;12.20;99.90;;;;;;5072619;28;20056;-60
2023/01/02 00:52:21;;;;;;;9.15;4.05;;;12.30;99.90;;;;;;5071982;28;20028;-61
2023/01/02 00:54:47;;;;;;;6.90;4.00;;;12.30;99.90;;;;;;5090316;28;20389;-60
2023/01/02 00:57:12;;;;;;;9.15;4.30;;;12.30;99.90;;;;;;5071342;28;20039;-60
2023/01/02 00:59:38;;;;;;;6.63;3.85;;;12.30;99.90;;;;;;5072049;28;20058;-61
2023/01/02 01:02:04;;;;;;;6.72;4.35;;;12.30;99.90;;;;;;5090160;28;20020;-60
2023/01/02 01:04:32;;;;;;;8.50;4.13;;;12.30;99.90;;;;;;5095564;28;20020;-61
2023/01/02 01:06:58;;;;;;;8.85;4.28;;;12.30;99.90;;;;;;5089801;28;20131;-61
2023/01/02 01:09:23;;;;;;;10.95;5.30;;;12.40;99.90;;;;;;5089724;28;20110;-60
2023/01/02 01:11:49;;;;;;;8.43;4.78;;;12.40;99.90;;;;;;5097890;28;20046;-60
2023/01/02 01:14:14;;;;;;;11.27;4.35;;;12.40;99.90;;;;;;5095536;28;20028;-61
2023/01/02 01:16:40;;;;;;;11.30;5.47;;;12.40;99.90;;;;;;5088797;28;20051;-60
2023/01/02 01:19:06;;;;;;;7.50;4.18;;;12.40;99.90;;;;;;5074309;28;20471;-60
2023/01/02 01:21:32;;;;;;;13.98;4.15;;;12.50;99.90;;;;;;5071022;28;20012;-60
2023/01/02 01:23:57;;;;;;;9.73;3.88;;;12.50;99.90;;;;;;5089610;28;20483;-61
2023/01/02 01:26:23;;;;;;;9.43;4.22;;;12.50;99.90;;;;;;5092239;28;20051;-60
2023/01/02 01:28:52;;;;;;;11.15;4.10;;;12.50;99.90;;;;;;5092733;28;20110;-61
2023/01/02 01:31:17;;;;;;;14.85;4.18;;;12.60;99.90;;;;;;5092162;28;20023;-60
2023/01/02 01:33:44;;;;;;;8.85;4.22;;;12.50;99.90;;;;;;5096773;28;20515;-60
2023/01/02 01:36:20;;;;;;;7.38;4.07;;;12.50;99.90;;;;;;5089525;28;20027;-60
2023/01/02 01:38:47;;;;;;;8.70;4.05;;;12.60;99.90;;;;;;5091631;28;20028;-60
2023/01/02 01:41:15;;;;;;;9.18;3.92;;;12.60;99.90;;;;;;5093011;28;20031;-60
2023/01/02 01:43:49;;;;;;;10.05;4.40;;;12.60;99.90;;;;;;5093475;28;20024;-60
2023/01/02 01:46:40;;;;;;;8.52;3.50;;;12.70;99.90;;;;;;5091733;28;20020;-60
2023/01/02 01:49:23;;;;;;;10.63;4.43;;;12.70;99.90;;;;;;5092007;28;20022;-60
2023/01/02 01:52:00;;;;;;;8.57;3.60;;;12.70;99.90;;;;;;5088592;28;20388;-60
2023/01/02 01:54:32;;;;;;;10.23;3.85;;;12.70;99.90;;;;;;5072628;28;20552;-60
2023/01/02 01:57:08;;;;;;;12.20;4.03;;;12.60;99.90;;;;;;5091574;28;20112;-60
2023/01/02 01:59:34;;;;;;;9.40;3.83;;;12.70;99.90;;;;;;5079055;28;20052;-60
2023/01/02 02:01:59;;;;;;;12.98;4.50;;;12.70;99.90;;;;;;5088613;28;20475;-60
2023/01/02 02:04:26;;;;;;;8.32;3.70;;;12.70;99.90;;;;;;5088944;28;20021;-60
2023/01/02 02:06:52;;;;;;;9.82;4.35;;;12.70;99.90;;;;;;5091217;28;20056;-61
2023/01/02 02:09:26;;;;;;;8.57;3.65;;;12.70;99.90;;;;;;5088940;28;20028;-61
2023/01/02 02:11:53;;;;;;;12.30;4.15;;;12.70;99.90;;;;;;5073810;28;20024;-60
2023/01/02 02:14:19;;;;;;;9.13;4.03;;;12.70;99.90;;;;;;5089035;28;20036;-60
2023/01/02 02:17:13;;;;;;;6.75;3.80;;;12.70;99.90;;;;;;5088368;28;20484;-61
2023/01/02 02:20:01;;;;;;;9.80;4.50;;;12.70;99.90;;;;;;5065122;28;20032;-61
2023/01/02 02:22:48;;;;;;;11.07;3.90;;;12.70;99.90;;;;;;5088089;28;20025;-60
2023/01/02 02:25:44;;;;;;;8.27;3.97;;;12.70;99.90;;;;;;5088438;28;20047;-60
2023/01/02 02:28:44;;;;;;;8.63;4.03;;;12.70;99.90;;;;;;5088550;28;20498;-61
2023/01/02 02:31:27;;;;;;;12.02;4.55;;;12.70;99.90;;;;;;5090362;28;20027;-61
2023/01/02 02:34:12;;;;;;;8.63;3.60;;;12.70;99.90;;;;;;5097189;28;20024;-61
2023/01/02 02:36:45;;;;;;;10.02;3.33;;;12.70;99.90;;;;;;5091405;28;20077;-61
2023/01/02 02:39:47;;;;;;;9.20;3.55;;;12.70;99.90;;;;;;5091028;28;20013;-61
2023/01/02 02:42:50;;;;;;;12.73;3.78;;;12.70;99.90;;;;;;5087191;28;20500;-61
2023/01/02 02:46:06;;;;;;;7.82;3.33;;;12.70;99.90;;;;;;5069021;28;20423;-61
2023/01/02 02:48:57;;;;;;;7.55;3.40;;;12.70;99.90;;;;;;4987310;28;20018;-61
2023/01/02 02:51:32;;;;;;;9.60;3.90;;;12.70;99.90;;;;;;4986157;28;20062;-61
2023/01/02 02:54:19;;;;;;;8.20;3.22;;;12.70;99.90;;;;;;5063731;27;20070;-60
2023/01/02 02:56:46;;;;;;;10.25;4.43;;;12.70;99.90;;;;;;5107232;27;20074;-60
2023/01/02 02:59:12;;;;;;;7.88;4.03;;;12.70;99.90;;;;;;5090019;28;20081;-61
2023/01/02 03:01:38;;;;;;;6.18;3.20;;;12.70;99.90;;;;;;5091158;28;20016;-61
2023/01/02 03:04:16;;;;;;;8.05;3.67;;;12.80;99.90;;;;;;5096113;27;20059;-61
2023/01/02 03:06:55;;;;;;;8.63;4.85;;;12.80;99.90;;;;;;5115989;27;20094;-61
2023/01/02 03:09:39;;;;;;;;;;;12.80;99.90;;;;;;5092916;28;20032;-61
2023/01/02 03:12:07;;;;;;;9.80;3.50;;;12.70;99.90;;;;;;5092551;28;19904;-61
2023/01/02 03:15:06;;;;;;;12.23;3.85;;;12.70;99.90;;;;;;5094855;28;20016;-61
2023/01/02 03:17:59;;;;;;;9.33;3.60;;;12.70;99.90;;;;;;5092631;28;20028;-61
2023/01/02 03:20:31;;;;;;;8.18;3.45;;;12.70;99.90;;;;;;5080335;28;20318;-61
2023/01/02 03:23:02;;;;;;;7.40;3.60;;;12.70;99.90;;;;;;5100430;28;20105;-61
2023/01/02 03:25:28;;;;;;;8.52;3.53;;;12.70;99.90;;;;;;5117235;28;20012;-61
2023/01/02 03:27:57;;;;;;;8.27;3.28;;;12.80;99.90;;;;;;5089735;28;20028;-61
2023/01/02 03:30:23;;;;;;;9.90;3.35;;;12.80;99.90;;;;;;5094864;28;20027;-61
2023/01/02 03:32:59;;;;;;;9.57;3.10;;;12.80;99.90;;;;;;5086110;28;20023;-61
2023/01/02 03:35:31;;;;;;;11.07;2.88;;;12.90;99.90;;;;;;5090016;28;20217;-61
2023/01/02 03:37:58;;;;;;;9.40;3.05;;;12.90;99.90;;;;;;5089773;28;20024;-61
2023/01/02 03:40:34;;;;;;;8.55;3.50;;;12.90;99.90;;;;;;5090955;28;20020;-61
2023/01/02 03:43:13;;;;;;;7.30;3.22;;;12.90;99.90;;;;;;5090222;28;20594;-61
2023/01/02 03:45:49;;;;;;;8.77;3.93;;;13.00;99.90;;;;;;5094807;28;20113;-61
2023/01/02 03:48:22;;;;;;;9.35;3.58;;;13.00;99.90;;;;;;5089657;28;20032;-61
2023/01/02 03:50:51;;;;;;;5.05;2.53;;;13.00;99.90;;;;;;5089701;28;20036;-61
2023/01/02 03:53:18;;;;;;;6.85;2.92;;;13.00;99.90;;;;;;5092748;28;20154;-60
2023/01/02 03:55:57;;;;;;;8.65;3.28;;;13.00;99.90;;;;;;5089651;28;20020;-61
2023/01/02 03:58:47;;;;;;;10.93;3.03;;;13.00;99.90;;;;;;5089598;28;20035;-61
2023/01/02 04:01:24;;;;;;;8.02;3.35;;;13.00;99.90;;;;;;5071852;28;20013;-60
2023/01/02 04:04:02;;;;;;;10.70;3.70;;;13.00;99.90;;;;;;5073115;28;20012;-61
2023/01/02 04:06:34;;;;;;;6.93;2.80;;;13.00;99.90;;;;;;5089838;28;20122;-61
2023/01/02 04:09:03;;;;;;;5.80;2.50;;;13.00;99.90;;;;;;5089991;28;20040;-60
2023/01/02 04:11:30;;;;;;;8.30;3.13;;;13.00;99.90;;;;;;5089702;28;20568;-61
2023/01/02 04:14:01;;;;;;;9.10;2.67;;;13.00;99.90;;;;;;5091682;28;20016;-60
2023/01/02 04:16:32;;;;;;;6.88;2.70;;;13.00;99.90;;;;;;5091814;28;20071;-61
2023/01/02 04:19:04;;;;;;;7.05;2.60;;;13.00;99.90;;;;;;5095837;28;20489;-61
2023/01/02 04:21:33;;;;;;;7.25;2.55;;;13.00;99.90;;;;;;5093357;28;20150;-61
2023/01/02 04:24:08;;;;;;;9.77;3.25;;;13.00;99.90;;;;;;5093387;28;20024;-61
2023/01/02 04:26:41;;;;;;;8.02;2.70;;;13.00;99.90;;;;;;5092931;28;20027;-61
2023/01/02 04:29:07;;;;;;;5.75;2.63;;;13.00;99.90;;;;;;5098460;28;20024;-61
2023/01/02 04:31:52;;;;;;;9.43;3.28;;;13.00;99.90;;;;;;5094680;28;20027;-61
2023/01/02 04:34:19;;;;;;;6.30;2.78;;;13.00;99.90;;;;;;5074666;28;20024;-61
2023/01/02 04:36:45;;;;;;;8.20;2.83;;;13.00;99.90;;;;;;5094967;28;20019;-60
2023/01/02 04:39:11;;;;;;;5.72;2.47;;;13.10;99.90;;;;;;5074600;28;20389;-60
2023/01/02 04:41:38;;;;;;;6.97;3.53;;;13.00;99.90;;;;;;5092941;28;20402;-61
2023/01/02 04:44:04;;;;;;;5.28;2.25;;;13.00;99.90;;;;;;5092961;28;20012;-61
2023/01/02 04:46:29;;;;;;;6.97;3.08;;;13.00;99.90;;;;;;5119009;27;20031;-61
2023/01/02 04:48:56;;;;;;;6.47;2.42;;;13.00;99.90;;;;;;5092467;28;20571;-61
2023/01/02 04:51:22;;;;;;;6.75;2.97;;;13.00;99.90;;;;;;5075416;28;20507;-61
2023/01/02 04:53:49;;;;;;;8.20;2.95;;;13.00;99.90;;;;;;5092721;28;20032;-61
2023/01/02 04:56:15;;;;;;;5.45;2.83;;;13.00;99.90;;;;;;5092458;28;20086;-61
2023/01/02 04:58:42;;;;;;;6.60;2.22;;;13.00;99.90;;;;;;5092526;28;20030;-60
2023/01/02 05:01:09;;;;;;;8.15;3.40;;;13.00;99.90;;;;;;5097487;28;20673;-61
2023/01/02 05:03:41;;;;;;;5.57;2.95;;;13.00;99.90;;;;;;5092266;28;20473;-61
2023/01/02 05:06:07;;;;;;;7.05;3.35;;;13.00;99.90;;;;;;5092392;28;20036;-61
2023/01/02 05:08:34;;;;;;;7.97;3.47;;;13.00;99.90;;;;;;5092846;27;20402;-61
2023/01/02 05:11:14;;;;;;;7.80;2.90;;;13.00;99.90;;;;;;5092202;28;20016;-60
2023/01/02 05:13:40;;;;;;;8.68;3.50;;;13.00;99.90;;;;;;5097791;28;20020;-61
2023/01/02 05:16:06;;;;;;;6.35;3.17;;;13.00;99.90;;;;;;5094729;28;20411;-61
2023/01/02 05:18:32;;;;;;;5.10;2.55;;;13.00;99.90;;;;;;5094628;28;20103;-60
2023/01/02 05:21:03;;;;;;;12.88;5.07;;;12.90;99.90;;;;;;5096190;28;20095;-60
2023/01/02 05:23:47;;;;;;;7.82;2.88;;;13.00;99.90;;;;;;5116360;27;20036;-61
2023/01/02 05:26:14;;;;;;;8.05;3.75;;;12.90;99.90;;;;;;5091749;28;20008;-61
2023/01/02 05:28:40;;;;;;;7.38;2.50;;;12.90;99.90;;;;;;5091971;28;20062;-61
2023/01/02 05:31:05;;;;;;;6.35;2.88;;;12.90;99.90;;;;;;5091944;28;20470;-61
2023/01/02 05:33:31;;;;;;;7.32;2.97;;;12.90;99.90;;;;;;5073634;28;20153;-60
2023/01/02 05:35:56;;;;;;;7.35;2.72;;;12.90;99.90;;;;;;5097482;28;20020;-61
2023/01/02 05:38:22;;;;;;;10.85;3.10;;;12.90;99.90;;;;;;5074494;28;20039;-61
2023/01/02 05:40:48;;;;;;;9.13;3.03;;;12.90;99.90;;;;;;5092394;28;20030;-61
2023/01/02 05:43:13;;;;;;;7.28;2.80;;;12.90;99.90;;;;;;5092099;28;20034;-61
2023/01/02 05:45:39;;;;;;;6.78;2.20;;;12.90;99.90;;;;;;5094591;28;20034;-60
2023/01/02 05:48:04;;;;;;;7.88;2.85;;;12.90;99.90;;;;;;5094872;28;20035;-60
2023/01/02 05:50:30;;;;;;;5.95;2.95;;;12.90;99.90;;;;;;5088665;28;20040;-60
2023/01/02 05:52:55;;;;;;;5.03;2.15;;;12.90;99.90;;;;;;5088960;27;20020;-61
2023/01/02 05:55:21;;;;;;;8.93;2.95;;;12.90;99.90;;;;;;5089181;28;20107;-61
2023/01/02 05:57:46;;;;;;;9.02;2.58;;;12.90;99.90;;;;;;5088922;28;20047;-61
2023/01/02 06:00:12;;;;;;;8.57;3.30;;;13.00;99.90;;;;;;5088871;28;20077;-61
2023/01/02 06:02:38;;;;;;;7.05;2.95;;;13.00;99.90;;;;;;5088965;28;20480;-61
2023/01/02 06:05:04;;;;;;;7.55;2.97;;;13.00;99.90;;;;;;5088922;28;20020;-61
2023/01/02 06:07:30;;;;;;;6.57;2.58;;;13.00;99.90;;;;;;5096899;28;20131;-61
2023/01/02 06:09:55;;;;;;;6.32;2.83;;;13.10;99.90;;;;;;5088488;28;20103;-61
2023/01/02 06:12:20;;;;;;;9.30;2.88;;;13.00;99.90;;;;;;5091075;28;20035;-61
2023/01/02 06:14:46;;;;;;;6.35;2.35;;;13.10;99.90;;;;;;5095403;28;20039;-61
2023/01/02 06:17:11;;;;;;;5.47;2.00;;;13.10;99.90;;;;;;5087964;28;20125;-61
2023/01/02 06:19:37;;;;;;;4.75;2.42;;;13.10;99.90;;;;;;5072767;28;20039;-61
2023/01/02 06:22:03;;;;;;;7.82;2.65;;;13.10;99.90;;;;;;5088273;28;20047;-61
2023/01/02 06:24:28;;;;;;;11.55;2.47;;;13.10;99.90;;;;;;5088606;28;20115;-61
2023/01/02 06:26:54;;;;;;;6.68;2.50;;;13.00;99.90;;;;;;5095573;28;20418;-61
2023/01/02 06:29:20;;;;;;;4.60;2.10;;;13.00;99.90;;;;;;5110933;28;20065;-61
2023/01/02 06:31:46;;;;;;;5.88;2.03;;;12.90;99.90;;;;;;5099646;28;20042;-61
2023/01/02 06:34:11;;;;;;;4.55;2.05;;;12.80;99.90;;;;;;5093589;28;20028;-61
2023/01/02 06:36:37;;;;;;;5.22;2.45;;;12.70;99.90;;;;;;5118622;27;20031;-61
2023/01/02 06:39:03;;;;;;;5.07;2.70;;;12.60;99.90;;;;;;5090985;28;20125;-61
2023/01/02 06:41:28;;;;;;;2.50;1.30;;;12.50;99.90;;;;;;5092038;28;20049;-62
2023/01/02 06:43:54;;;;;;;1.80;0.70;;;12.40;99.90;;;;;;5092219;28;20015;-62
2023/01/02 06:46:21;;;;;;;0.85;0.50;;;12.30;99.90;;;;;;5073753;28;20016;-61
2023/01/02 06:48:48;;;;;;;0.47;0.30;;;12.10;99.90;;;;;;5091566;28;20013;-61
2023/01/02 06:51:16;;;;;;;0.30;0.20;;;12.00;99.90;;;;;;5091666;28;20668;-61
2023/01/02 06:53:43;;;;;;;0.45;0.30;;;11.90;99.90;;;;;;5109468;28;20022;-61
2023/01/02 06:56:09;;;;;;;0.50;0.30;;;11.80;99.90;;;;;;5100839;28;20032;-61
2023/01/02 06:58:37;;;;;;;0.70;0.30;;;11.80;99.90;;;;;;5101382;28;20020;-61
2023/01/02 07:01:09;;;;;;;0.60;0.40;;;11.80;99.90;;;;;;5099057;28;20027;-61
2023/01/02 07:03:35;;;;;;;1.52;0.50;;;11.70;99.90;;;;;;5088782;28;20067;-61
2023/01/02 07:06:03;;;;;;;0.77;0.30;;;11.70;99.90;;;;;;5091872;28;20059;-61
2023/01/02 07:08:30;;;;;;;0.60;0.22;;;11.60;99.90;;;;;;5095900;28;20052;-61
2023/01/02 07:11:15;;;;;;;0.30;0.20;;;11.60;99.90;;;;;;5100067;28;20488;-61
2023/01/02 07:13:42;;;;;;;0.40;0.20;;;11.60;99.90;;;;;;5109877;28;20019;-61
2023/01/02 07:16:10;;;;;;;0.20;0.20;;;11.50;99.90;;;;;;5103834;28;20449;-61
2023/01/02 07:18:36;;;;;;;0.47;0.30;;;11.50;99.90;;;;;;5094408;28;20147;-61
2023/01/02 07:21:03;;;;;;;0.50;0.40;;;11.50;99.90;;;;;;5092028;28;20103;-61
2023/01/02 07:23:29;;;;;;;0.70;0.60;;;11.40;99.90;;;;;;5076085;28;20042;-61
2023/01/02 07:25:59;;;;;;;1.27;1.10;;;11.40;99.90;;;;;;5094965;28;20029;-61
2023/01/02 07:28:25;;;;;;;2.00;1.52;;;11.40;99.90;;;;;;5094266;28;20019;-61
2023/01/02 07:30:56;;;;;;;1.48;1.20;;;11.40;99.90;;;;;;5094456;28;20488;-61
2023/01/02 07:33:22;;;;;;;1.45;1.30;;;11.30;99.90;;;;;;5091027;28;20073;-61
2023/01/02 07:35:47;;;;;;;1.92;1.73;;;11.30;99.90;;;;;;5090988;28;20027;-61
2023/01/02 07:38:13;;;;;;;3.33;2.60;;;11.30;99.90;;;;;;5091345;28;20039;-61
2023/01/02 07:40:38;;;;;;;3.28;2.90;;;11.30;99.90;;;;;;5091027;28;20028;-61
2023/01/02 07:43:04;;;;;;;4.18;3.58;;;11.20;99.90;;;;;;5091786;28;20039;-61
2023/01/02 07:45:31;;;;;;;4.72;4.28;;;11.20;99.90;;;;;;5091693;28;20016;-61
2023/01/02 07:47:57;;;;;;;4.60;4.07;;;11.20;99.90;;;;;;5091059;28;20469;-60
2023/01/02 07:50:22;;;;;;;3.92;3.53;;;11.10;99.90;;;;;;5107025;28;20032;-60
2023/01/02 07:52:48;;;;;;;3.13;2.80;;;11.10;99.90;;;;;;5095232;28;20110;-61
2023/01/02 07:55:13;;;;;;;3.85;3.33;;;11.10;99.90;;;;;;5095674;28;20038;-61
2023/01/02 07:57:39;;;;;;;3.78;2.97;;;11.10;99.90;;;;;;5095032;28;20027;-61
2023/01/02 08:00:05;;;;;;;3.42;2.97;;;11.00;99.90;;;;;;5077471;28;20099;-61
2023/01/02 08:02:31;;;;;;;4.30;3.53;;;11.00;99.90;;;;;;5094967;28;20099;-60
2023/01/02 08:04:56;;;;;;;4.05;3.33;;;11.00;99.90;;;;;;5109167;28;20095;-61
2023/01/02 08:07:22;;;;;;;3.63;2.95;;;11.00;99.90;;;;;;5095389;28;20404;-61
2023/01/02 08:09:47;;;;;;;4.53;3.35;;;10.90;99.90;;;;;;5077631;28;20031;-60
2023/01/02 08:12:13;;;;;;;3.92;3.38;;;11.00;99.90;;;;;;5078949;28;20077;-61
2023/01/02 08:14:39;;;;;;;4.32;3.35;;;11.00;99.90;;;;;;5106346;28;20028;-61
2023/01/02 08:17:04;;;;;;;3.80;3.35;;;10.90;99.90;;;;;;5109366;28;20468;-60
2023/01/02 08:19:30;;;;;;;4.20;3.75;;;11.00;99.90;;;;;;5114986;28;20054;-60
2023/01/02 08:21:55;;;;;;;4.35;3.53;;;10.90;99.90;;;;;;5130251;27;20028;-60
2023/01/02 08:24:21;;;;;;;5.18;3.65;;;10.90;99.90;;;;;;5121702;27;20016;-60
2023/01/02 08:26:46;;;;;;;3.70;3.22;;;10.80;99.90;;;;;;5094221;28;20024;-60
2023/01/02 08:29:12;;;;;;;4.70;3.67;;;10.80;99.90;;;;;;5094494;28;20024;-60
2023/01/02 08:31:37;;;;;;;4.85;3.30;;;10.80;99.90;;;;;;5110019;28;20024;-60
2023/01/02 08:34:03;;;;;;;5.65;3.90;;;10.70;99.90;;;;;;5107501;28;20107;-60
2023/01/02 08:36:28;;;;;;;5.25;3.95;;;10.70;99.90;;;;;;5094421;28;20078;-60
2023/01/02 08:38:54;;;;;;;5.07;3.67;;;10.70;99.90;;;;;;5093686;28;20190;-60
2023/01/02 08:41:31;;;;;;;4.53;3.50;;;10.70;99.90;;;;;;5080852;28;20031;-60
2023/01/02 08:43:56;;;;;;;5.28;3.67;;;10.70;99.90;;;;;;5113365;28;20106;-60
2023/01/02 08:46:23;;;;;;;5.93;3.10;;;10.70;99.90;;;;;;5100938;28;20038;-60
2023/01/02 08:48:48;;;;;;;5.03;3.25;;;10.70;99.90;;;;;;5097490;28;20583;-62
2023/01/02 08:51:14;;;;;;;5.07;3.42;;;10.60;99.90;;;;;;5078202;28;20024;-62
2023/01/02 08:53:39;;;;;;;5.25;2.90;;;10.60;99.90;;;;;;5099410;28;20023;-62
2023/01/02 08:56:27;;;;;;;4.07;2.83;;;10.60;99.90;;;;;;5099048;28;20020;-62
2023/01/02 08:59:01;;;;;;;4.75;3.33;;;10.60;99.90;;;;;;5100425;28;20065;-62
2023/01/02 09:01:28;;;;;;;4.78;2.85;;;10.60;99.90;;;;;;5100219;28;20032;-62
2023/01/02 09:03:54;;;;;;;3.33;2.47;;;10.60;99.90;;;;;;5105433;28;20012;-62
2023/01/02 09:06:20;;;;;;;4.85;3.05;;;10.50;99.90;;;;;;5078181;28;20460;-62
2023/01/02 09:08:46;;;;;;;5.07;2.90;;;10.50;99.90;;;;;;5083189;28;20044;-62
2023/01/02 09:11:15;;;;;;;4.40;2.92;;;10.50;99.90;;;;;;5100486;28;20013;-62
2023/01/02 09:13:41;;;;;;;4.63;2.80;;;10.50;99.90;;;;;;5084588;28;20024;-62
2023/01/02 09:16:08;;;;;;;4.00;2.90;;;10.50;99.90;;;;;;5100721;28;20074;-62
2023/01/02 09:18:34;;;;;;;4.65;2.47;;;10.50;99.90;;;;;;5102195;28;20455;-62
2023/01/02 09:21:00;;;;;;;6.03;2.80;;;10.40;99.90;;;;;;5081810;28;20020;-62
2023/01/02 09:23:26;;;;;;;3.67;2.63;;;10.50;99.90;;;;;;5106872;28;20023;-62
2023/01/02 09:25:51;;;;;;;4.45;2.70;;;10.40;99.90;;;;;;5107636;28;20380;-62
2023/01/02 09:28:17;;;;;;;4.53;2.80;;;10.40;99.90;;;;;;5109762;28;20075;-62
2023/01/02 09:30:42;;;;;;;4.70;2.85;;;10.50;99.90;;;;;;5085546;28;20028;-62
2023/01/02 09:33:08;;;;;;;5.75;2.25;;;10.50;99.90;;;;;;5093167;28;20039;-62
2023/01/02 09:35:34;;;;;;;3.53;2.05;;;10.50;99.90;;;;;;5094060;28;20077;-62
2023/01/02 09:38:00;;;;;;;5.65;2.70;;;10.50;99.90;;;;;;5105165;28;20140;-62
2023/01/02 09:40:26;;;;;;;5.13;2.47;;;10.50;99.90;;;;;;5094083;28;20765;-62
2023/01/02 09:42:52;;;;;;;3.42;2.38;;;10.50;99.90;;;;;;5104850;28;20028;-62
2023/01/02 09:45:18;;;;;;;5.05;2.58;;;10.50;99.90;;;;;;5106214;28;20019;-62
2023/01/02 09:47:46;;;;;;;5.45;3.08;;;10.50;99.90;;;;;;5092617;28;20080;-62
2023/01/02 09:50:26;;;;;;;6.82;3.22;;;10.50;99.90;;;;;;5074601;28;20085;-62
2023/01/02 09:52:58;;;;;;;5.28;3.17;;;10.60;99.90;;;;;;5102838;28;20031;-62
2023/01/02 09:55:36;;;;;;;6.53;3.47;;;10.60;99.90;;;;;;5108542;28;20037;-62
2023/01/02 09:58:28;;;;;;;6.30;3.00;;;10.60;99.90;;;;;;5111070;28;20383;-62
2023/01/02 10:00:55;;;;;;;6.70;3.38;;;10.60;99.90;;;;;;5105118;28;20211;-62
2023/01/02 10:03:40;;;;;;;4.07;3.08;;;10.60;99.90;;;;;;5107289;28;20067;-62
2023/01/02 10:06:13;;;;;;;4.53;2.58;;;10.60;99.90;;;;;;5107644;28;20012;-62
2023/01/02 10:08:57;;;;;;;4.43;2.67;;;10.60;99.90;;;;;;5109683;28;20085;-62
2023/01/02 10:11:31;;;;;;;3.97;2.78;;;10.50;99.90;;;;;;5106342;28;20027;-62
2023/01/02 10:14:33;;;;;;;4.35;2.83;;;10.50;99.90;;;;;;5110175;28;20023;-62
2023/01/02 10:17:00;;;;;;;3.33;2.80;;;10.60;99.90;;;;;;5108173;28;20421;-62
2023/01/02 10:19:46;;;;;;;3.97;2.95;;;10.50;99.90;;;;;;5110460;28;20054;-62
2023/01/02 10:22:17;;;;;;;6.05;2.55;;;10.60;99.90;;;;;;5096381;28;20030;-62
2023/01/02 10:25:14;;;;;;;6.10;2.90;;;10.60;99.90;;;;;;5110283;28;20016;-62
2023/01/02 10:27:57;;;;;;;6.38;2.13;;;10.60;99.90;;;;;;5065840;28;20032;-62
2023/01/02 10:30:25;;;;;;;3.65;2.92;;;10.60;99.90;;;;;;5097657;28;20100;-62
2023/01/02 10:33:19;;;;;;;4.88;2.00;;;10.60;99.90;;;;;;5093603;28;20489;-62
2023/01/02 10:36:00;;;;;;;3.00;2.17;;;10.60;99.90;;;;;;5091338;28;20094;-62
2023/01/02 10:38:33;;;;;;;4.85;2.30;;;10.70;99.90;;;;;;5091851;28;20048;-62
2023/01/02 10:40:59;;;;;;;4.07;2.20;;;10.70;99.90;;;;;;5097943;28;20098;-62
2023/01/02 10:43:25;;;;;;;3.17;2.30;;;10.70;99.90;;;;;;5110936;28;20102;-62
2023/01/02 10:45:51;;;;;;;4.38;1.88;;;10.70;99.90;;;;;;5109041;28;20020;-62
2023/01/02 10:48:19;;;;;;;5.88;1.80;;;10.70;99.90;;;;;;5106375;28;20026;-62
2023/01/02 10:50:50;;;;;;;4.47;2.42;;;10.70;99.90;;;;;;5106665;28;20020;-62
2023/01/02 10:53:36;;;;;;;3.40;2.17;;;10.70;99.90;;;;;;5109373;28;20019;-62
2023/01/02 10:56:21;;;;;;;4.72;2.05;;;10.70;99.90;;;;;;5085694;28;20020;-62
2023/01/02 10:58:51;;;;;;;2.63;1.70;;;10.70;99.90;;;;;;5108085;28;20036;-62
2023/01/02 11:01:20;;;;;;;;;;;10.60;99.90;;;;;;5098209;28;20070;-62
2023/01/02 11:04:11;;;;;;;4.37;1.90;;;10.60;99.90;;;;;;5074144;28;20391;-62
2023/01/02 11:06:56;;;;;;;3.30;1.42;;;10.70;99.90;;;;;;5103803;28;20028;-61
2023/01/02 11:09:35;;;;;;;3.05;1.77;;;10.70;99.90;;;;;;5100109;28;20039;-62
2023/01/02 11:12:12;;;;;;;5.65;1.60;;;10.70;99.90;;;;;;5099733;28;20100;-62
2023/01/02 11:14:38;;;;;;;4.25;1.50;;;10.70;99.90;;;;;;5111095;28;20027;-62
2023/01/02 11:17:09;;;;;;;4.25;1.10;;;10.70;99.90;;;;;;5095865;28;20059;-62
2023/01/02 11:19:44;;;;;;;6.00;1.30;;;10.80;99.90;;;;;;5100690;28;20028;-62
2023/01/02 11:22:12;;;;;;;3.20;1.35;;;10.90;99.90;;;;;;5097387;28;20023;-62
2023/01/02 11:24:58;;;;;;;2.85;1.10;;;10.80;99.90;;;;;;5111284;28;20024;-62
2023/01/02 11:27:30;;;;;;;3.55;1.30;;;10.90;99.90;;;;;;5095444;28;20020;-62
2023/01/02 11:29:56;;;;;;;4.00;1.45;;;10.90;99.90;;;;;;5097979;28;20020;-62
2023/01/02 11:32:37;;;;;;;4.63;1.60;;;10.80;99.90;;;;;;5078260;28;20035;-62
2023/01/02 11:35:04;;;;;;;4.00;1.27;;;10.80;99.90;;;;;;5105911;28;20032;-62
2023/01/02 11:37:30;;;;;;;4.45;1.70;;;10.70;99.90;;;;;;5095419;28;20025;-62
2023/01/02 11:39:57;;;;;;;6.05;2.13;;;10.70;99.90;;;;;;5095528;28;20085;-62
2023/01/02 11:45:20;;;;;;;3.33;1.33;;;10.80;99.90;;;;;;5095595;28;20046;-62
2023/01/02 11:47:59;;;;;;;4.88;1.35;;;10.70;99.90;;;;;;5095546;28;20531;-62
2023/01/02 11:50:31;;;;;;;6.20;1.42;;;10.70;99.90;;;;;;5094717;28;20021;-62
2023/01/02 11:53:01;;;;;;;7.90;2.35;;;10.80;99.90;;;;;;5095268;28;20027;-62
2023/01/02 11:55:48;;;;;;;6.30;1.40;;;10.80;99.90;;;;;;5105316;28;20023;-62
2023/01/02 11:58:41;;;;;;;4.57;1.73;;;10.80;99.90;;;;;;5110764;28;20090;-62
2023/01/02 12:01:24;;;;;;;4.60;1.42;;;10.80;99.90;;;;;;5111705;28;20016;-62
2023/01/02 12:03:50;;;;;;;6.25;2.22;;;10.80;99.90;;;;;;5111336;28;20099;-62
2023/01/02 12:06:21;;;;;;;4.85;2.03;;;10.80;99.90;;;;;;5109913;28;20536;-62
2023/01/02 12:09:12;;;;;;;4.53;1.70;;;10.80;99.90;;;;;;5108918;28;20119;-62
2023/01/02 12:12:04;;;;;;;7.00;2.17;;;10.90;99.90;;;;;;5113995;28;20037;-62
2023/01/02 12:14:52;;;;;;;4.85;1.83;;;10.80;99.90;;;;;;5106723;28;20419;-62
2023/01/02 12:17:44;;;;;;;8.23;2.33;;;10.80;99.90;;;;;;5098056;28;20472;-62
2023/01/02 12:20:17;;;;;;;5.32;2.35;;;10.70;99.90;;;;;;5113958;28;20400;-62
2023/01/02 12:23:09;;;;;;;5.25;2.40;;;10.70;99.90;;;;;;5106067;28;20540;-62
2023/01/02 12:26:05;;;;;;;5.97;2.50;;;10.70;99.90;;;;;;5094816;28;20020;-62
2023/01/02 12:28:36;;;;;;;8.18;2.80;;;10.70;99.90;;;;;;5094367;28;20024;-62
2023/01/02 12:31:30;;;;;;;6.05;2.38;;;10.70;99.90;;;;;;5094534;28;20396;-62
2023/01/02 12:34:11;;;;;;;7.07;3.22;;;10.70;99.90;;;;;;5094370;28;20095;-62
2023/01/02 12:36:55;;;;;;;7.57;4.00;;;10.70;99.90;;;;;;5082010;28;20027;-62
2023/01/02 12:39:41;;;;;;;6.90;3.58;;;10.60;99.90;;;;;;5095934;28;20023;-62
2023/01/02 12:42:35;;;;;;;6.35;3.40;;;10.60;99.90;;;;;;5110776;28;20065;-62
2023/01/02 12:45:00;;;;;;;6.38;4.10;;;10.70;99.90;;;;;;5108944;28;20016;-62
2023/01/02 12:47:47;;;;;;;8.88;4.53;;;10.60;99.90;;;;;;5093698;28;20031;-62
2023/01/02 12:50:20;;;;;;;8.25;5.30;;;10.70;99.90;;;;;;5105676;28;20410;-62
2023/01/02 12:53:22;;;;;;;7.97;4.70;;;10.70;99.90;;;;;;5110820;28;20032;-62
2023/01/02 12:56:13;;;;;;;6.25;4.70;;;10.70;99.90;;;;;;5110103;28;20023;-62
2023/01/02 12:59:09;;;;;;;6.93;4.60;;;10.70;99.90;;;;;;5108869;27;20043;-62
2023/01/02 13:02:17;;;;;;;7.93;5.13;;;10.70;99.90;;;;;;5107511;27;20467;-62
2023/01/02 13:04:54;;;;;;;8.05;5.88;;;10.70;99.90;;;;;;5010883;28;20026;-62
2023/01/02 13:07:36;;;;;;;8.80;5.32;;;10.70;99.90;;;;;;5102890;28;20066;-62
2023/01/02 13:10:04;;;;;;;8.07;5.75;;;10.70;99.90;;;;;;5087693;28;20392;-62
2023/01/02 13:12:31;;;;;;;8.25;6.80;;;10.60;99.90;;;;;;5087554;28;20039;-62